sensor_id;sensor_type;location;lat;lon;timestamp;P1;durP1;ratioP1;P2;durP2;ratioP2
39970;SDS011;35425;51.142;17.178;2022-10-26T00:00:06;3.38;;;2.72;;
39970;SDS011;35425;51.142;17.178;2022-10-26T00:02:32;3.53;;;2.83;;
39970;SDS011;35425;51.142;17.178;2022-10-26T00:04:59;3.20;;;2.78;;
39970;SDS011;35425;51.142;17.178;2022-10-26T00:07:27;2.88;;;2.13;;
39970;SDS011;35425;51.142;17.178;2022-10-26T00:09:54;3.40;;;2.75;;
39970;SDS011;35425;51.142;17.178;2022-10-26T00:12:21;4.05;;;2.80;;
39970;SDS011;35425;51.142;17.178;2022-10-26T00:14:47;3.35;;;2.72;;
39970;SDS011;35425;51.142;17.178;2022-10-26T00:17:13;3.33;;;2.65;;
39970;SDS011;35425;51.142;17.178;2022-10-26T00:19:40;3.50;;;2.40;;
39970;SDS011;35425;51.142;17.178;2022-10-26T00:22:06;3.60;;;2.80;;
39970;SDS011;35425;51.142;17.178;2022-10-26T00:24:33;3.17;;;2.53;;
39970;SDS011;35425;51.142;17.178;2022-10-26T00:26:59;3.35;;;2.88;;
39970;SDS011;35425;51.142;17.178;2022-10-26T00:29:26;3.50;;;2.75;;
39970;SDS011;35425;51.142;17.178;2022-10-26T00:31:52;2.97;;;2.50;;
39970;SDS011;35425;51.142;17.178;2022-10-26T00:34:19;2.75;;;2.38;;
39970;SDS011;35425;51.142;17.178;2022-10-26T00:36:45;2.88;;;2.50;;
39970;SDS011;35425;51.142;17.178;2022-10-26T00:39:12;3.25;;;2.53;;
39970;SDS011;35425;51.142;17.178;2022-10-26T00:41:38;3.35;;;2.42;;
39970;SDS011;35425;51.142;17.178;2022-10-26T00:46:50;2.58;;;2.38;;
39970;SDS011;35425;51.142;17.178;2022-10-26T00:49:16;3.47;;;3.00;;
39970;SDS011;35425;51.142;17.178;2022-10-26T00:51:50;3.30;;;2.85;;
39970;SDS011;35425;51.142;17.178;2022-10-26T00:54:18;3.00;;;2.47;;
39970;SDS011;35425;51.142;17.178;2022-10-26T00:56:46;3.80;;;2.85;;
39970;SDS011;35425;51.142;17.178;2022-10-26T00:59:14;3.15;;;2.53;;
39970;SDS011;35425;51.142;17.178;2022-10-26T01:01:42;3.05;;;2.70;;
39970;SDS011;35425;51.142;17.178;2022-10-26T01:04:09;3.75;;;2.45;;
39970;SDS011;35425;51.142;17.178;2022-10-26T01:06:35;2.83;;;2.60;;
39970;SDS011;35425;51.142;17.178;2022-10-26T01:09:03;2.58;;;2.28;;
39970;SDS011;35425;51.142;17.178;2022-10-26T01:11:30;3.13;;;2.83;;
39970;SDS011;35425;51.142;17.178;2022-10-26T01:13:57;2.83;;;2.42;;
39970;SDS011;35425;51.142;17.178;2022-10-26T01:31:16;2.40;;;2.17;;
39970;SDS011;35425;51.142;17.178;2022-10-26T01:33:47;3.25;;;2.88;;
39970;SDS011;35425;51.142;17.178;2022-10-26T01:36:23;2.97;;;2.63;;
39970;SDS011;35425;51.142;17.178;2022-10-26T01:39:07;2.88;;;2.58;;
39970;SDS011;35425;51.142;17.178;2022-10-26T01:41:37;2.60;;;2.40;;
39970;SDS011;35425;51.142;17.178;2022-10-26T01:46:54;2.90;;;2.60;;
39970;SDS011;35425;51.142;17.178;2022-10-26T01:49:24;2.92;;;2.58;;
39970;SDS011;35425;51.142;17.178;2022-10-26T01:51:52;2.42;;;2.22;;
39970;SDS011;35425;51.142;17.178;2022-10-26T01:54:18;2.88;;;2.30;;
39970;SDS011;35425;51.142;17.178;2022-10-26T01:56:46;2.60;;;2.40;;
39970;SDS011;35425;51.142;17.178;2022-10-26T02:00:01;2.28;;;2.08;;
39970;SDS011;35425;51.142;17.178;2022-10-26T02:09:42;2.60;;;2.40;;
39970;SDS011;35425;51.142;17.178;2022-10-26T02:12:14;2.55;;;2.35;;
39970;SDS011;35425;51.142;17.178;2022-10-26T02:14:51;2.90;;;2.40;;
39970;SDS011;35425;51.142;17.178;2022-10-26T02:17:28;2.53;;;2.33;;
39970;SDS011;35425;51.142;17.178;2022-10-26T02:19:56;3.38;;;2.33;;
39970;SDS011;35425;51.142;17.178;2022-10-26T02:22:28;2.95;;;2.45;;
39970;SDS011;35425;51.142;17.178;2022-10-26T02:24:58;2.60;;;2.20;;
39970;SDS011;35425;51.142;17.178;2022-10-26T02:27:27;2.67;;;2.30;;
39970;SDS011;35425;51.142;17.178;2022-10-26T02:29:54;2.53;;;2.33;;
39970;SDS011;35425;51.142;17.178;2022-10-26T02:32:22;2.63;;;2.00;;
39970;SDS011;35425;51.142;17.178;2022-10-26T02:34:50;2.25;;;2.05;;
39970;SDS011;35425;51.142;17.178;2022-10-26T02:37:18;2.35;;;2.15;;
39970;SDS011;35425;51.142;17.178;2022-10-26T02:39:45;2.33;;;2.13;;
39970;SDS011;35425;51.142;17.178;2022-10-26T02:42:13;2.50;;;2.30;;
39970;SDS011;35425;51.142;17.178;2022-10-26T02:44:41;2.30;;;2.10;;
39970;SDS011;35425;51.142;17.178;2022-10-26T02:47:09;2.10;;;1.90;;
39970;SDS011;35425;51.142;17.178;2022-10-26T02:49:36;2.20;;;2.00;;
39970;SDS011;35425;51.142;17.178;2022-10-26T02:57:18;2.15;;;1.95;;
39970;SDS011;35425;51.142;17.178;2022-10-26T02:59:46;2.35;;;2.00;;
39970;SDS011;35425;51.142;17.178;2022-10-26T03:02:13;2.05;;;1.85;;
39970;SDS011;35425;51.142;17.178;2022-10-26T03:04:41;2.28;;;1.92;;
39970;SDS011;35425;51.142;17.178;2022-10-26T03:07:07;2.58;;;2.00;;
39970;SDS011;35425;51.142;17.178;2022-10-26T03:09:34;2.50;;;2.03;;
39970;SDS011;35425;51.142;17.178;2022-10-26T03:12:00;1.80;;;1.65;;
39970;SDS011;35425;51.142;17.178;2022-10-26T03:14:27;2.30;;;2.03;;
39970;SDS011;35425;51.142;17.178;2022-10-26T03:16:53;2.45;;;2.10;;
39970;SDS011;35425;51.142;17.178;2022-10-26T03:19:20;2.42;;;1.85;;
39970;SDS011;35425;51.142;17.178;2022-10-26T03:21:46;2.22;;;1.77;;
39970;SDS011;35425;51.142;17.178;2022-10-26T03:24:13;1.80;;;1.70;;
39970;SDS011;35425;51.142;17.178;2022-10-26T03:26:39;2.40;;;2.03;;
39970;SDS011;35425;51.142;17.178;2022-10-26T03:29:06;2.45;;;2.25;;
39970;SDS011;35425;51.142;17.178;2022-10-26T03:31:34;2.40;;;2.20;;
39970;SDS011;35425;51.142;17.178;2022-10-26T03:34:00;2.10;;;1.60;;
39970;SDS011;35425;51.142;17.178;2022-10-26T03:36:27;2.20;;;2.00;;
39970;SDS011;35425;51.142;17.178;2022-10-26T03:38:53;2.03;;;1.83;;
39970;SDS011;35425;51.142;17.178;2022-10-26T03:41:20;2.22;;;1.80;;
39970;SDS011;35425;51.142;17.178;2022-10-26T03:43:46;1.92;;;1.80;;
39970;SDS011;35425;51.142;17.178;2022-10-26T03:46:14;2.67;;;2.20;;
39970;SDS011;35425;51.142;17.178;2022-10-26T03:48:40;1.90;;;1.70;;
39970;SDS011;35425;51.142;17.178;2022-10-26T03:51:06;2.35;;;2.00;;
39970;SDS011;35425;51.142;17.178;2022-10-26T03:53:33;1.92;;;1.80;;
39970;SDS011;35425;51.142;17.178;2022-10-26T03:56:00;1.70;;;1.60;;
39970;SDS011;35425;51.142;17.178;2022-10-26T03:58:26;2.17;;;1.77;;
39970;SDS011;35425;51.142;17.178;2022-10-26T04:00:53;1.70;;;1.60;;
39970;SDS011;35425;51.142;17.178;2022-10-26T04:03:19;1.63;;;1.52;;
39970;SDS011;35425;51.142;17.178;2022-10-26T04:05:45;1.60;;;1.50;;
39970;SDS011;35425;51.142;17.178;2022-10-26T04:08:12;2.10;;;1.90;;
39970;SDS011;35425;51.142;17.178;2022-10-26T04:10:38;1.70;;;1.60;;
39970;SDS011;35425;51.142;17.178;2022-10-26T04:13:05;1.70;;;1.60;;
39970;SDS011;35425;51.142;17.178;2022-10-26T04:15:31;1.65;;;1.50;;
39970;SDS011;35425;51.142;17.178;2022-10-26T04:17:59;1.98;;;1.50;;
39970;SDS011;35425;51.142;17.178;2022-10-26T04:20:26;1.48;;;1.35;;
39970;SDS011;35425;51.142;17.178;2022-10-26T04:23:00;1.80;;;1.58;;
39970;SDS011;35425;51.142;17.178;2022-10-26T04:25:27;1.40;;;1.27;;
39970;SDS011;35425;51.142;17.178;2022-10-26T04:27:58;1.73;;;1.63;;
39970;SDS011;35425;51.142;17.178;2022-10-26T04:30:25;1.67;;;1.50;;
39970;SDS011;35425;51.142;17.178;2022-10-26T04:32:52;1.48;;;1.25;;
39970;SDS011;35425;51.142;17.178;2022-10-26T04:35:18;1.98;;;1.77;;
39970;SDS011;35425;51.142;17.178;2022-10-26T04:37:45;1.30;;;1.20;;
39970;SDS011;35425;51.142;17.178;2022-10-26T04:40:11;1.45;;;1.35;;
39970;SDS011;35425;51.142;17.178;2022-10-26T04:42:44;1.90;;;1.52;;
39970;SDS011;35425;51.142;17.178;2022-10-26T04:45:13;1.65;;;1.55;;
39970;SDS011;35425;51.142;17.178;2022-10-26T04:47:39;1.48;;;1.27;;
39970;SDS011;35425;51.142;17.178;2022-10-26T04:50:06;2.30;;;1.70;;
39970;SDS011;35425;51.142;17.178;2022-10-26T04:52:33;1.50;;;1.35;;
39970;SDS011;35425;51.142;17.178;2022-10-26T04:55:00;1.55;;;1.45;;
39970;SDS011;35425;51.142;17.178;2022-10-26T04:57:31;1.80;;;1.50;;
39970;SDS011;35425;51.142;17.178;2022-10-26T04:59:58;1.52;;;1.42;;
39970;SDS011;35425;51.142;17.178;2022-10-26T05:02:26;1.98;;;1.77;;
39970;SDS011;35425;51.142;17.178;2022-10-26T05:04:53;1.60;;;1.50;;
39970;SDS011;35425;51.142;17.178;2022-10-26T05:07:20;1.55;;;1.45;;
39970;SDS011;35425;51.142;17.178;2022-10-26T05:09:46;1.88;;;1.70;;
39970;SDS011;35425;51.142;17.178;2022-10-26T05:12:13;1.60;;;1.50;;
39970;SDS011;35425;51.142;17.178;2022-10-26T05:14:39;1.95;;;1.50;;
39970;SDS011;35425;51.142;17.178;2022-10-26T05:17:06;1.83;;;1.50;;
39970;SDS011;35425;51.142;17.178;2022-10-26T05:19:32;1.42;;;1.33;;
39970;SDS011;35425;51.142;17.178;2022-10-26T05:21:58;1.60;;;1.50;;
39970;SDS011;35425;51.142;17.178;2022-10-26T05:24:25;1.40;;;1.30;;
39970;SDS011;35425;51.142;17.178;2022-10-26T05:26:51;2.15;;;1.50;;
39970;SDS011;35425;51.142;17.178;2022-10-26T05:29:18;1.50;;;1.40;;
39970;SDS011;35425;51.142;17.178;2022-10-26T05:31:44;1.30;;;1.20;;
39970;SDS011;35425;51.142;17.178;2022-10-26T05:34:11;1.60;;;1.50;;
39970;SDS011;35425;51.142;17.178;2022-10-26T05:36:37;1.73;;;1.42;;
39970;SDS011;35425;51.142;17.178;2022-10-26T05:39:04;1.50;;;1.40;;
39970;SDS011;35425;51.142;17.178;2022-10-26T05:41:30;1.70;;;1.60;;
39970;SDS011;35425;51.142;17.178;2022-10-26T05:43:56;1.60;;;1.50;;
39970;SDS011;35425;51.142;17.178;2022-10-26T05:46:23;1.75;;;1.65;;
39970;SDS011;35425;51.142;17.178;2022-10-26T05:48:49;1.48;;;1.38;;
39970;SDS011;35425;51.142;17.178;2022-10-26T05:51:16;1.90;;;1.67;;
39970;SDS011;35425;51.142;17.178;2022-10-26T05:53:42;1.73;;;1.40;;
39970;SDS011;35425;51.142;17.178;2022-10-26T05:56:15;1.58;;;1.48;;
39970;SDS011;35425;51.142;17.178;2022-10-26T05:58:43;1.60;;;1.50;;
39970;SDS011;35425;51.142;17.178;2022-10-26T06:01:23;1.63;;;1.25;;
39970;SDS011;35425;51.142;17.178;2022-10-26T06:06:20;1.63;;;1.52;;
39970;SDS011;35425;51.142;17.178;2022-10-26T06:08:47;2.35;;;1.50;;
39970;SDS011;35425;51.142;17.178;2022-10-26T06:11:14;1.50;;;1.40;;
39970;SDS011;35425;51.142;17.178;2022-10-26T06:13:40;1.98;;;1.80;;
39970;SDS011;35425;51.142;17.178;2022-10-26T06:16:10;1.60;;;1.50;;
39970;SDS011;35425;51.142;17.178;2022-10-26T06:26:41;2.03;;;1.75;;
39970;SDS011;35425;51.142;17.178;2022-10-26T06:29:53;1.90;;;1.45;;
39970;SDS011;35425;51.142;17.178;2022-10-26T06:31:58;2.35;;;1.50;;
39970;SDS011;35425;51.142;17.178;2022-10-26T06:34:26;1.73;;;1.63;;
39970;SDS011;35425;51.142;17.178;2022-10-26T06:36:55;1.88;;;1.77;;
39970;SDS011;35425;51.142;17.178;2022-10-26T06:39:23;1.70;;;1.60;;
39970;SDS011;35425;51.142;17.178;2022-10-26T06:41:51;1.52;;;1.42;;
39970;SDS011;35425;51.142;17.178;2022-10-26T06:44:21;1.58;;;1.45;;
39970;SDS011;35425;51.142;17.178;2022-10-26T06:56:59;2.38;;;1.80;;
39970;SDS011;35425;51.142;17.178;2022-10-26T06:59:31;1.52;;;1.40;;
39970;SDS011;35425;51.142;17.178;2022-10-26T07:01:58;2.00;;;1.60;;
39970;SDS011;35425;51.142;17.178;2022-10-26T07:04:30;1.70;;;1.58;;
39970;SDS011;35425;51.142;17.178;2022-10-26T07:06:57;1.77;;;1.58;;
39970;SDS011;35425;51.142;17.178;2022-10-26T07:09:23;2.40;;;2.20;;
39970;SDS011;35425;51.142;17.178;2022-10-26T07:11:50;2.28;;;2.08;;
39970;SDS011;35425;51.142;17.178;2022-10-26T07:14:16;1.60;;;1.50;;
39970;SDS011;35425;51.142;17.178;2022-10-26T07:16:43;1.90;;;1.65;;
39970;SDS011;35425;51.142;17.178;2022-10-26T07:19:09;1.70;;;1.60;;
39970;SDS011;35425;51.142;17.178;2022-10-26T07:21:36;1.70;;;1.60;;
39970;SDS011;35425;51.142;17.178;2022-10-26T07:24:02;1.95;;;1.80;;
39970;SDS011;35425;51.142;17.178;2022-10-26T07:26:29;1.65;;;1.55;;
39970;SDS011;35425;51.142;17.178;2022-10-26T07:28:55;1.60;;;1.50;;
39970;SDS011;35425;51.142;17.178;2022-10-26T07:31:22;1.60;;;1.50;;
39970;SDS011;35425;51.142;17.178;2022-10-26T07:33:48;1.58;;;1.48;;
39970;SDS011;35425;51.142;17.178;2022-10-26T07:36:15;2.40;;;1.60;;
39970;SDS011;35425;51.142;17.178;2022-10-26T07:38:41;1.38;;;1.27;;
39970;SDS011;35425;51.142;17.178;2022-10-26T07:41:07;1.77;;;1.67;;
39970;SDS011;35425;51.142;17.178;2022-10-26T07:43:34;2.25;;;1.73;;
39970;SDS011;35425;51.142;17.178;2022-10-26T07:46:00;2.83;;;1.73;;
39970;SDS011;35425;51.142;17.178;2022-10-26T07:48:27;1.63;;;1.52;;
39970;SDS011;35425;51.142;17.178;2022-10-26T07:50:54;2.00;;;1.60;;
39970;SDS011;35425;51.142;17.178;2022-10-26T07:53:20;1.65;;;1.55;;
39970;SDS011;35425;51.142;17.178;2022-10-26T07:55:53;1.67;;;1.58;;
39970;SDS011;35425;51.142;17.178;2022-10-26T07:58:20;1.58;;;1.27;;
39970;SDS011;35425;51.142;17.178;2022-10-26T08:00:49;1.52;;;1.42;;
39970;SDS011;35425;51.142;17.178;2022-10-26T08:03:16;1.38;;;1.27;;
39970;SDS011;35425;51.142;17.178;2022-10-26T08:05:44;1.40;;;1.30;;
39970;SDS011;35425;51.142;17.178;2022-10-26T08:08:11;1.40;;;1.30;;
39970;SDS011;35425;51.142;17.178;2022-10-26T08:10:45;1.70;;;1.60;;
39970;SDS011;35425;51.142;17.178;2022-10-26T08:13:12;1.60;;;1.33;;
39970;SDS011;35425;51.142;17.178;2022-10-26T08:15:38;1.50;;;1.40;;
39970;SDS011;35425;51.142;17.178;2022-10-26T08:18:05;1.70;;;1.60;;
39970;SDS011;35425;51.142;17.178;2022-10-26T08:20:32;1.23;;;1.13;;
39970;SDS011;35425;51.142;17.178;2022-10-26T08:22:58;1.38;;;1.27;;
39970;SDS011;35425;51.142;17.178;2022-10-26T08:25:26;1.20;;;1.10;;
39970;SDS011;35425;51.142;17.178;2022-10-26T08:27:52;1.50;;;1.40;;
39970;SDS011;35425;51.142;17.178;2022-10-26T08:30:19;1.70;;;1.50;;
39970;SDS011;35425;51.142;17.178;2022-10-26T08:32:46;1.58;;;1.38;;
39970;SDS011;35425;51.142;17.178;2022-10-26T08:35:13;1.40;;;1.20;;
39970;SDS011;35425;51.142;17.178;2022-10-26T08:37:39;1.30;;;1.20;;
39970;SDS011;35425;51.142;17.178;2022-10-26T08:40:06;1.52;;;1.35;;
39970;SDS011;35425;51.142;17.178;2022-10-26T08:42:36;1.27;;;1.17;;
39970;SDS011;35425;51.142;17.178;2022-10-26T08:45:37;1.40;;;1.30;;
39970;SDS011;35425;51.142;17.178;2022-10-26T08:48:03;1.40;;;1.30;;
39970;SDS011;35425;51.142;17.178;2022-10-26T08:50:32;1.60;;;1.17;;
39970;SDS011;35425;51.142;17.178;2022-10-26T08:53:10;1.30;;;1.20;;
39970;SDS011;35425;51.142;17.178;2022-10-26T08:55:42;1.27;;;1.17;;
39970;SDS011;35425;51.142;17.178;2022-10-26T08:58:12;1.00;;;0.90;;
39970;SDS011;35425;51.142;17.178;2022-10-26T09:00:40;1.70;;;1.17;;
39970;SDS011;35425;51.142;17.178;2022-10-26T09:03:13;1.60;;;1.50;;
39970;SDS011;35425;51.142;17.178;2022-10-26T09:05:53;1.20;;;1.10;;
39970;SDS011;35425;51.142;17.178;2022-10-26T09:11:05;0.90;;;0.90;;
39970;SDS011;35425;51.142;17.178;2022-10-26T09:14:20;1.17;;;1.05;;
39970;SDS011;35425;51.142;17.178;2022-10-26T09:24:14;0.90;;;0.90;;
39970;SDS011;35425;51.142;17.178;2022-10-26T09:29:10;1.63;;;1.20;;
39970;SDS011;35425;51.142;17.178;2022-10-26T09:31:39;1.13;;;1.00;;
39970;SDS011;35425;51.142;17.178;2022-10-26T09:34:13;1.38;;;1.02;;
39970;SDS011;35425;51.142;17.178;2022-10-26T09:36:41;1.38;;;1.08;;
39970;SDS011;35425;51.142;17.178;2022-10-26T09:39:18;1.30;;;1.08;;
39970;SDS011;35425;51.142;17.178;2022-10-26T09:41:52;1.40;;;1.05;;
39970;SDS011;35425;51.142;17.178;2022-10-26T09:44:28;1.10;;;1.00;;
39970;SDS011;35425;51.142;17.178;2022-10-26T09:49:34;1.15;;;1.10;;
39970;SDS011;35425;51.142;17.178;2022-10-26T09:52:02;1.08;;;1.00;;
39970;SDS011;35425;51.142;17.178;2022-10-26T09:54:29;0.80;;;0.80;;
39970;SDS011;35425;51.142;17.178;2022-10-26T09:56:56;1.02;;;0.93;;
39970;SDS011;35425;51.142;17.178;2022-10-26T09:59:25;1.85;;;1.10;;
39970;SDS011;35425;51.142;17.178;2022-10-26T10:01:52;1.35;;;0.88;;
39970;SDS011;35425;51.142;17.178;2022-10-26T10:04:20;1.02;;;1.02;;
39970;SDS011;35425;51.142;17.178;2022-10-26T10:14:30;1.58;;;1.02;;
39970;SDS011;35425;51.142;17.178;2022-10-26T10:17:08;1.38;;;1.25;;
39970;SDS011;35425;51.142;17.178;2022-10-26T10:19:45;0.70;;;0.70;;
39970;SDS011;35425;51.142;17.178;2022-10-26T10:24:42;1.08;;;0.98;;
39970;SDS011;35425;51.142;17.178;2022-10-26T10:29:40;1.17;;;0.80;;
39970;SDS011;35425;51.142;17.178;2022-10-26T10:32:10;0.95;;;0.80;;
39970;SDS011;35425;51.142;17.178;2022-10-26T10:34:39;1.30;;;0.90;;
39970;SDS011;35425;51.142;17.178;2022-10-26T10:37:06;0.98;;;0.88;;
39970;SDS011;35425;51.142;17.178;2022-10-26T10:42:10;1.27;;;0.90;;
39970;SDS011;35425;51.142;17.178;2022-10-26T10:44:39;1.05;;;0.95;;
39970;SDS011;35425;51.142;17.178;2022-10-26T10:47:05;1.15;;;1.00;;
39970;SDS011;35425;51.142;17.178;2022-10-26T10:49:32;1.48;;;1.08;;
39970;SDS011;35425;51.142;17.178;2022-10-26T10:51:59;0.93;;;0.90;;
39970;SDS011;35425;51.142;17.178;2022-10-26T10:56:52;1.10;;;0.90;;
39970;SDS011;35425;51.142;17.178;2022-10-26T10:59:32;1.25;;;0.90;;
39970;SDS011;35425;51.142;17.178;2022-10-26T11:07:03;0.90;;;0.82;;
39970;SDS011;35425;51.142;17.178;2022-10-26T11:09:32;1.08;;;0.98;;
39970;SDS011;35425;51.142;17.178;2022-10-26T11:12:00;0.90;;;0.90;;
39970;SDS011;35425;51.142;17.178;2022-10-26T11:19:33;1.20;;;0.70;;
39970;SDS011;35425;51.142;17.178;2022-10-26T11:22:01;0.75;;;0.75;;
39970;SDS011;35425;51.142;17.178;2022-10-26T11:24:40;1.23;;;1.13;;
39970;SDS011;35425;51.142;17.178;2022-10-26T11:29:46;1.05;;;0.95;;
39970;SDS011;35425;51.142;17.178;2022-10-26T11:37:19;1.13;;;1.00;;
39970;SDS011;35425;51.142;17.178;2022-10-26T11:42:25;0.77;;;0.75;;
39970;SDS011;35425;51.142;17.178;2022-10-26T11:45:11;0.93;;;0.82;;
39970;SDS011;35425;51.142;17.178;2022-10-26T11:47:45;0.80;;;0.70;;
39970;SDS011;35425;51.142;17.178;2022-10-26T11:50:28;0.82;;;0.70;;
39970;SDS011;35425;51.142;17.178;2022-10-26T11:55:39;1.30;;;0.98;;
39970;SDS011;35425;51.142;17.178;2022-10-26T11:58:09;0.95;;;0.95;;
39970;SDS011;35425;51.142;17.178;2022-10-26T12:00:50;1.38;;;1.02;;
39970;SDS011;35425;51.142;17.178;2022-10-26T12:03:26;0.90;;;0.65;;
39970;SDS011;35425;51.142;17.178;2022-10-26T12:05:53;0.82;;;0.70;;
39970;SDS011;35425;51.142;17.178;2022-10-26T12:08:22;1.20;;;0.80;;
39970;SDS011;35425;51.142;17.178;2022-10-26T12:11:01;0.85;;;0.70;;
39970;SDS011;35425;51.142;17.178;2022-10-26T12:15:59;0.65;;;0.60;;
39970;SDS011;35425;51.142;17.178;2022-10-26T12:18:32;0.70;;;0.68;;
39970;SDS011;35425;51.142;17.178;2022-10-26T12:21:20;0.95;;;0.70;;
39970;SDS011;35425;51.142;17.178;2022-10-26T12:24:31;0.70;;;0.65;;
39970;SDS011;35425;51.142;17.178;2022-10-26T12:26:38;0.82;;;0.70;;
39970;SDS011;35425;51.142;17.178;2022-10-26T12:33:59;0.80;;;0.73;;
39970;SDS011;35425;51.142;17.178;2022-10-26T12:39:30;0.68;;;0.50;;
39970;SDS011;35425;51.142;17.178;2022-10-26T12:42:42;0.80;;;0.70;;
39970;SDS011;35425;51.142;17.178;2022-10-26T12:52:38;0.85;;;0.50;;
39970;SDS011;35425;51.142;17.178;2022-10-26T13:00:04;0.50;;;0.50;;
39970;SDS011;35425;51.142;17.178;2022-10-26T13:07:50;0.77;;;0.50;;
39970;SDS011;35425;51.142;17.178;2022-10-26T13:10:20;0.60;;;0.60;;
39970;SDS011;35425;51.142;17.178;2022-10-26T13:12:51;0.60;;;0.50;;
39970;SDS011;35425;51.142;17.178;2022-10-26T13:17:52;0.57;;;0.50;;
39970;SDS011;35425;51.142;17.178;2022-10-26T13:20:20;0.50;;;0.40;;
39970;SDS011;35425;51.142;17.178;2022-10-26T13:22:46;0.80;;;0.57;;
39970;SDS011;35425;51.142;17.178;2022-10-26T13:25:35;0.50;;;0.50;;
39970;SDS011;35425;51.142;17.178;2022-10-26T13:28:29;0.63;;;0.32;;
39970;SDS011;35425;51.142;17.178;2022-10-26T13:30:52;0.60;;;0.60;;
39970;SDS011;35425;51.142;17.178;2022-10-26T13:33:20;0.70;;;0.50;;
39970;SDS011;35425;51.142;17.178;2022-10-26T13:35:48;0.75;;;0.30;;
39970;SDS011;35425;51.142;17.178;2022-10-26T13:38:17;0.60;;;0.50;;
39970;SDS011;35425;51.142;17.178;2022-10-26T13:40:44;0.63;;;0.50;;
39970;SDS011;35425;51.142;17.178;2022-10-26T13:43:17;0.80;;;0.50;;
39970;SDS011;35425;51.142;17.178;2022-10-26T13:45:50;0.90;;;0.55;;
39970;SDS011;35425;51.142;17.178;2022-10-26T13:48:21;0.57;;;0.50;;
39970;SDS011;35425;51.142;17.178;2022-10-26T13:50:53;0.50;;;0.43;;
39970;SDS011;35425;51.142;17.178;2022-10-26T13:53:22;0.40;;;0.30;;
39970;SDS011;35425;51.142;17.178;2022-10-26T13:55:53;0.47;;;0.40;;
39970;SDS011;35425;51.142;17.178;2022-10-26T13:58:24;0.60;;;0.40;;
39970;SDS011;35425;51.142;17.178;2022-10-26T14:01:00;0.30;;;0.30;;
39970;SDS011;35425;51.142;17.178;2022-10-26T14:03:27;0.63;;;0.40;;
39970;SDS011;35425;51.142;17.178;2022-10-26T14:05:55;0.68;;;0.47;;
39970;SDS011;35425;51.142;17.178;2022-10-26T14:08:21;0.70;;;0.50;;
39970;SDS011;35425;51.142;17.178;2022-10-26T14:10:55;0.88;;;0.50;;
39970;SDS011;35425;51.142;17.178;2022-10-26T14:13:23;0.60;;;0.50;;
39970;SDS011;35425;51.142;17.178;2022-10-26T14:15:55;0.70;;;0.47;;
39970;SDS011;35425;51.142;17.178;2022-10-26T14:18:26;0.70;;;0.40;;
39970;SDS011;35425;51.142;17.178;2022-10-26T14:20:55;0.55;;;0.55;;
39970;SDS011;35425;51.142;17.178;2022-10-26T14:23:26;0.40;;;0.40;;
39970;SDS011;35425;51.142;17.178;2022-10-26T14:25:53;0.57;;;0.45;;
39970;SDS011;35425;51.142;17.178;2022-10-26T14:28:26;1.15;;;0.45;;
39970;SDS011;35425;51.142;17.178;2022-10-26T14:30:53;0.77;;;0.50;;
39970;SDS011;35425;51.142;17.178;2022-10-26T14:33:22;0.40;;;0.40;;
39970;SDS011;35425;51.142;17.178;2022-10-26T14:35:51;1.05;;;0.40;;
39970;SDS011;35425;51.142;17.178;2022-10-26T14:38:19;0.47;;;0.30;;
39970;SDS011;35425;51.142;17.178;2022-10-26T14:40:47;1.80;;;0.85;;
39970;SDS011;35425;51.142;17.178;2022-10-26T14:43:16;0.70;;;0.40;;
39970;SDS011;35425;51.142;17.178;2022-10-26T14:45:47;0.77;;;0.50;;
39970;SDS011;35425;51.142;17.178;2022-10-26T14:48:22;0.82;;;0.40;;
39970;SDS011;35425;51.142;17.178;2022-10-26T14:53:47;0.80;;;0.60;;
39970;SDS011;35425;51.142;17.178;2022-10-26T14:56:28;0.80;;;0.55;;
39970;SDS011;35425;51.142;17.178;2022-10-26T14:58:55;0.75;;;0.47;;
39970;SDS011;35425;51.142;17.178;2022-10-26T15:01:23;0.73;;;0.52;;
39970;SDS011;35425;51.142;17.178;2022-10-26T15:03:55;0.80;;;0.45;;
39970;SDS011;35425;51.142;17.178;2022-10-26T15:06:39;0.75;;;0.40;;
39970;SDS011;35425;51.142;17.178;2022-10-26T15:09:15;1.13;;;0.50;;
39970;SDS011;35425;51.142;17.178;2022-10-26T15:11:52;0.60;;;0.40;;
39970;SDS011;35425;51.142;17.178;2022-10-26T15:14:19;0.77;;;0.30;;
39970;SDS011;35425;51.142;17.178;2022-10-26T15:16:52;0.80;;;0.50;;
39970;SDS011;35425;51.142;17.178;2022-10-26T15:19:19;1.45;;;0.68;;
39970;SDS011;35425;51.142;17.178;2022-10-26T15:21:49;0.63;;;0.60;;
39970;SDS011;35425;51.142;17.178;2022-10-26T15:24:26;0.80;;;0.47;;
39970;SDS011;35425;51.142;17.178;2022-10-26T15:26:58;0.98;;;0.40;;
39970;SDS011;35425;51.142;17.178;2022-10-26T15:32:00;0.73;;;0.40;;
39970;SDS011;35425;51.142;17.178;2022-10-26T15:34:27;0.75;;;0.50;;
39970;SDS011;35425;51.142;17.178;2022-10-26T15:36:54;0.77;;;0.57;;
39970;SDS011;35425;51.142;17.178;2022-10-26T15:39:21;0.40;;;0.38;;
39970;SDS011;35425;51.142;17.178;2022-10-26T15:41:48;0.65;;;0.50;;
39970;SDS011;35425;51.142;17.178;2022-10-26T15:44:18;0.45;;;0.40;;
39970;SDS011;35425;51.142;17.178;2022-10-26T15:46:45;0.38;;;0.30;;
39970;SDS011;35425;51.142;17.178;2022-10-26T15:49:18;0.40;;;0.40;;
39970;SDS011;35425;51.142;17.178;2022-10-26T15:51:45;1.02;;;0.60;;
39970;SDS011;35425;51.142;17.178;2022-10-26T15:54:12;0.50;;;0.40;;
39970;SDS011;35425;51.142;17.178;2022-10-26T15:56:39;0.93;;;0.43;;
39970;SDS011;35425;51.142;17.178;2022-10-26T15:59:16;0.63;;;0.60;;
39970;SDS011;35425;51.142;17.178;2022-10-26T16:01:42;0.75;;;0.40;;
39970;SDS011;35425;51.142;17.178;2022-10-26T16:04:09;0.70;;;0.40;;
39970;SDS011;35425;51.142;17.178;2022-10-26T16:06:37;0.50;;;0.40;;
39970;SDS011;35425;51.142;17.178;2022-10-26T16:09:05;0.50;;;0.50;;
39970;SDS011;35425;51.142;17.178;2022-10-26T16:11:32;0.70;;;0.50;;
39970;SDS011;35425;51.142;17.178;2022-10-26T16:13:59;0.65;;;0.50;;
39970;SDS011;35425;51.142;17.178;2022-10-26T16:16:29;0.60;;;0.40;;
39970;SDS011;35425;51.142;17.178;2022-10-26T16:18:55;0.75;;;0.50;;
39970;SDS011;35425;51.142;17.178;2022-10-26T16:21:37;1.13;;;0.57;;
39970;SDS011;35425;51.142;17.178;2022-10-26T16:24:03;0.52;;;0.40;;
39970;SDS011;35425;51.142;17.178;2022-10-26T16:26:30;0.57;;;0.50;;
39970;SDS011;35425;51.142;17.178;2022-10-26T16:28:57;0.50;;;0.40;;
39970;SDS011;35425;51.142;17.178;2022-10-26T16:31:25;0.68;;;0.50;;
39970;SDS011;35425;51.142;17.178;2022-10-26T16:36:36;0.60;;;0.57;;
39970;SDS011;35425;51.142;17.178;2022-10-26T16:39:04;0.70;;;0.70;;
39970;SDS011;35425;51.142;17.178;2022-10-26T16:41:30;0.60;;;0.50;;
39970;SDS011;35425;51.142;17.178;2022-10-26T16:43:57;0.77;;;0.50;;
39970;SDS011;35425;51.142;17.178;2022-10-26T16:46:23;0.82;;;0.60;;
39970;SDS011;35425;51.142;17.178;2022-10-26T16:48:50;0.90;;;0.70;;
39970;SDS011;35425;51.142;17.178;2022-10-26T16:51:18;1.05;;;0.60;;
39970;SDS011;35425;51.142;17.178;2022-10-26T16:53:49;1.02;;;0.50;;
39970;SDS011;35425;51.142;17.178;2022-10-26T16:56:17;0.98;;;0.85;;
39970;SDS011;35425;51.142;17.178;2022-10-26T16:58:44;0.68;;;0.60;;
39970;SDS011;35425;51.142;17.178;2022-10-26T17:01:10;1.02;;;0.95;;
39970;SDS011;35425;51.142;17.178;2022-10-26T17:03:38;1.30;;;0.95;;
39970;SDS011;35425;51.142;17.178;2022-10-26T17:06:06;1.05;;;0.95;;
39970;SDS011;35425;51.142;17.178;2022-10-26T17:08:33;1.20;;;1.10;;
39970;SDS011;35425;51.142;17.178;2022-10-26T17:11:00;1.50;;;1.40;;
39970;SDS011;35425;51.142;17.178;2022-10-26T17:13:27;1.15;;;1.08;;